sensor_id;sensor_type;location;lat;lon;timestamp;P1;durP1;ratioP1;P2;durP2;ratioP2
18259;SDS011;9256;52.236;5.712;2023-11-19T00:00:38;41.30;;;13.57;;
18259;SDS011;9256;52.236;5.712;2023-11-19T00:03:05;53.30;;;13.60;;
18259;SDS011;9256;52.236;5.712;2023-11-19T00:05:34;42.92;;;13.40;;
18259;SDS011;9256;52.236;5.712;2023-11-19T00:08:01;43.25;;;13.35;;
18259;SDS011;9256;52.236;5.712;2023-11-19T00:10:28;43.88;;;13.07;;
18259;SDS011;9256;52.236;5.712;2023-11-19T00:12:55;43.75;;;14.95;;
18259;SDS011;9256;52.236;5.712;2023-11-19T00:15:22;36.63;;;12.05;;
18259;SDS011;9256;52.236;5.712;2023-11-19T00:17:50;39.20;;;11.70;;
18259;SDS011;9256;52.236;5.712;2023-11-19T00:20:17;32.65;;;10.77;;
18259;SDS011;9256;52.236;5.712;2023-11-19T00:22:48;28.63;;;9.73;;
18259;SDS011;9256;52.236;5.712;2023-11-19T00:25:16;35.00;;;9.88;;
18259;SDS011;9256;52.236;5.712;2023-11-19T00:27:44;32.33;;;8.93;;
18259;SDS011;9256;52.236;5.712;2023-11-19T00:30:11;31.27;;;9.25;;
18259;SDS011;9256;52.236;5.712;2023-11-19T00:32:39;34.33;;;8.75;;
18259;SDS011;9256;52.236;5.712;2023-11-19T00:35:06;31.73;;;8.88;;
18259;SDS011;9256;52.236;5.712;2023-11-19T00:37:33;33.53;;;8.77;;
18259;SDS011;9256;52.236;5.712;2023-11-19T00:40:01;40.50;;;8.52;;
18259;SDS011;9256;52.236;5.712;2023-11-19T00:42:30;29.95;;;8.07;;
18259;SDS011;9256;52.236;5.712;2023-11-19T00:44:57;35.47;;;7.95;;
18259;SDS011;9256;52.236;5.712;2023-11-19T00:47:27;31.13;;;7.40;;
18259;SDS011;9256;52.236;5.712;2023-11-19T00:49:56;29.58;;;6.95;;
18259;SDS011;9256;52.236;5.712;2023-11-19T00:52:22;26.42;;;7.00;;
18259;SDS011;9256;52.236;5.712;2023-11-19T00:54:49;30.58;;;7.18;;
18259;SDS011;9256;52.236;5.712;2023-11-19T00:57:18;27.95;;;6.97;;
18259;SDS011;9256;52.236;5.712;2023-11-19T00:59:44;27.83;;;6.45;;
18259;SDS011;9256;52.236;5.712;2023-11-19T01:02:14;34.08;;;6.15;;
18259;SDS011;9256;52.236;5.712;2023-11-19T01:04:41;28.45;;;6.00;;
18259;SDS011;9256;52.236;5.712;2023-11-19T01:07:09;30.45;;;6.45;;
18259;SDS011;9256;52.236;5.712;2023-11-19T01:09:37;27.17;;;6.57;;
18259;SDS011;9256;52.236;5.712;2023-11-19T01:12:05;20.63;;;5.75;;
18259;SDS011;9256;52.236;5.712;2023-11-19T01:14:35;29.85;;;6.05;;
18259;SDS011;9256;52.236;5.712;2023-11-19T01:17:02;30.85;;;6.00;;
18259;SDS011;9256;52.236;5.712;2023-11-19T01:19:31;33.10;;;5.82;;
18259;SDS011;9256;52.236;5.712;2023-11-19T01:21:57;33.40;;;5.72;;
18259;SDS011;9256;52.236;5.712;2023-11-19T01:24:24;28.60;;;5.45;;
18259;SDS011;9256;52.236;5.712;2023-11-19T01:26:53;29.73;;;6.18;;
18259;SDS011;9256;52.236;5.712;2023-11-19T01:29:20;28.30;;;5.63;;
18259;SDS011;9256;52.236;5.712;2023-11-19T01:31:48;33.42;;;5.50;;
18259;SDS011;9256;52.236;5.712;2023-11-19T01:34:16;39.33;;;4.97;;
18259;SDS011;9256;52.236;5.712;2023-11-19T01:36:43;33.85;;;4.70;;
18259;SDS011;9256;52.236;5.712;2023-11-19T01:39:11;28.05;;;4.93;;
18259;SDS011;9256;52.236;5.712;2023-11-19T01:41:41;31.65;;;4.30;;
18259;SDS011;9256;52.236;5.712;2023-11-19T01:44:08;28.35;;;4.40;;
18259;SDS011;9256;52.236;5.712;2023-11-19T01:46:37;31.23;;;4.75;;
18259;SDS011;9256;52.236;5.712;2023-11-19T01:49:06;34.45;;;4.43;;
18259;SDS011;9256;52.236;5.712;2023-11-19T01:51:34;35.80;;;5.10;;
18259;SDS011;9256;52.236;5.712;2023-11-19T01:54:01;31.70;;;5.35;;
18259;SDS011;9256;52.236;5.712;2023-11-19T01:56:29;37.22;;;4.75;;
18259;SDS011;9256;52.236;5.712;2023-11-19T01:58:56;39.10;;;5.38;;
18259;SDS011;9256;52.236;5.712;2023-11-19T02:01:23;32.33;;;4.80;;
18259;SDS011;9256;52.236;5.712;2023-11-19T02:03:50;30.60;;;4.70;;
18259;SDS011;9256;52.236;5.712;2023-11-19T02:06:19;40.30;;;5.28;;
18259;SDS011;9256;52.236;5.712;2023-11-19T02:08:46;37.15;;;4.20;;
18259;SDS011;9256;52.236;5.712;2023-11-19T02:11:13;37.53;;;4.70;;
18259;SDS011;9256;52.236;5.712;2023-11-19T02:13:40;34.50;;;5.22;;
18259;SDS011;9256;52.236;5.712;2023-11-19T02:16:08;40.90;;;4.88;;
18259;SDS011;9256;52.236;5.712;2023-11-19T02:18:36;45.60;;;5.47;;
18259;SDS011;9256;52.236;5.712;2023-11-19T02:21:03;42.97;;;5.28;;
18259;SDS011;9256;52.236;5.712;2023-11-19T02:23:33;38.80;;;4.88;;
18259;SDS011;9256;52.236;5.712;2023-11-19T02:26:02;40.85;;;4.50;;
18259;SDS011;9256;52.236;5.712;2023-11-19T02:28:35;37.25;;;4.38;;
18259;SDS011;9256;52.236;5.712;2023-11-19T02:31:02;47.15;;;4.60;;
18259;SDS011;9256;52.236;5.712;2023-11-19T02:33:31;38.15;;;4.50;;
18259;SDS011;9256;52.236;5.712;2023-11-19T02:35:58;40.35;;;4.07;;
18259;SDS011;9256;52.236;5.712;2023-11-19T02:38:26;36.25;;;5.00;;
18259;SDS011;9256;52.236;5.712;2023-11-19T02:40:53;31.95;;;3.88;;
18259;SDS011;9256;52.236;5.712;2023-11-19T02:43:20;48.55;;;4.85;;
18259;SDS011;9256;52.236;5.712;2023-11-19T02:45:49;37.38;;;4.32;;
18259;SDS011;9256;52.236;5.712;2023-11-19T02:48:16;42.40;;;5.13;;
18259;SDS011;9256;52.236;5.712;2023-11-19T02:50:46;40.08;;;4.18;;
18259;SDS011;9256;52.236;5.712;2023-11-19T02:53:13;42.70;;;4.95;;
18259;SDS011;9256;52.236;5.712;2023-11-19T02:55:41;44.58;;;4.25;;
18259;SDS011;9256;52.236;5.712;2023-11-19T02:58:13;47.03;;;4.43;;
18259;SDS011;9256;52.236;5.712;2023-11-19T03:00:50;37.25;;;4.00;;
18259;SDS011;9256;52.236;5.712;2023-11-19T03:03:22;42.95;;;4.88;;
18259;SDS011;9256;52.236;5.712;2023-11-19T03:05:53;39.22;;;4.13;;
18259;SDS011;9256;52.236;5.712;2023-11-19T03:08:20;42.05;;;4.32;;
18259;SDS011;9256;52.236;5.712;2023-11-19T03:10:48;42.13;;;4.30;;
18259;SDS011;9256;52.236;5.712;2023-11-19T03:13:15;40.67;;;4.43;;
18259;SDS011;9256;52.236;5.712;2023-11-19T03:15:43;46.75;;;5.18;;
18259;SDS011;9256;52.236;5.712;2023-11-19T03:18:14;33.80;;;4.05;;
18259;SDS011;9256;52.236;5.712;2023-11-19T03:20:42;41.67;;;4.10;;
18259;SDS011;9256;52.236;5.712;2023-11-19T03:23:09;46.67;;;4.80;;
18259;SDS011;9256;52.236;5.712;2023-11-19T03:25:38;34.28;;;3.88;;
18259;SDS011;9256;52.236;5.712;2023-11-19T03:28:05;33.67;;;4.28;;
18259;SDS011;9256;52.236;5.712;2023-11-19T03:30:32;49.45;;;4.50;;
18259;SDS011;9256;52.236;5.712;2023-11-19T03:32:59;49.97;;;4.90;;
18259;SDS011;9256;52.236;5.712;2023-11-19T03:35:27;40.45;;;5.18;;
18259;SDS011;9256;52.236;5.712;2023-11-19T03:37:54;52.95;;;4.78;;
18259;SDS011;9256;52.236;5.712;2023-11-19T03:40:21;46.20;;;5.03;;
18259;SDS011;9256;52.236;5.712;2023-11-19T03:42:49;37.88;;;4.35;;
18259;SDS011;9256;52.236;5.712;2023-11-19T03:45:16;41.67;;;5.03;;
18259;SDS011;9256;52.236;5.712;2023-11-19T03:47:43;43.03;;;4.60;;
18259;SDS011;9256;52.236;5.712;2023-11-19T03:50:09;44.28;;;4.65;;
18259;SDS011;9256;52.236;5.712;2023-11-19T03:52:38;46.97;;;4.53;;
18259;SDS011;9256;52.236;5.712;2023-11-19T03:55:05;45.83;;;4.15;;
18259;SDS011;9256;52.236;5.712;2023-11-19T03:57:33;39.90;;;4.85;;
18259;SDS011;9256;52.236;5.712;2023-11-19T04:00:00;39.67;;;4.07;;
18259;SDS011;9256;52.236;5.712;2023-11-19T04:02:33;51.47;;;4.95;;
18259;SDS011;9256;52.236;5.712;2023-11-19T04:05:00;42.65;;;4.57;;
18259;SDS011;9256;52.236;5.712;2023-11-19T04:07:28;41.60;;;4.30;;
18259;SDS011;9256;52.236;5.712;2023-11-19T04:09:56;56.20;;;5.25;;
18259;SDS011;9256;52.236;5.712;2023-11-19T04:12:23;40.92;;;4.38;;
18259;SDS011;9256;52.236;5.712;2023-11-19T04:14:50;48.58;;;5.00;;
18259;SDS011;9256;52.236;5.712;2023-11-19T04:17:17;46.85;;;4.07;;
18259;SDS011;9256;52.236;5.712;2023-11-19T04:19:44;41.83;;;4.07;;
18259;SDS011;9256;52.236;5.712;2023-11-19T04:22:11;56.05;;;4.45;;
18259;SDS011;9256;52.236;5.712;2023-11-19T04:24:38;56.95;;;5.72;;
18259;SDS011;9256;52.236;5.712;2023-11-19T04:27:07;58.35;;;5.57;;
18259;SDS011;9256;52.236;5.712;2023-11-19T04:29:34;52.30;;;4.90;;
18259;SDS011;9256;52.236;5.712;2023-11-19T04:32:01;51.08;;;5.38;;
18259;SDS011;9256;52.236;5.712;2023-11-19T04:34:30;51.65;;;5.03;;
18259;SDS011;9256;52.236;5.712;2023-11-19T04:36:59;52.05;;;5.07;;
18259;SDS011;9256;52.236;5.712;2023-11-19T04:39:28;50.25;;;4.63;;
18259;SDS011;9256;52.236;5.712;2023-11-19T04:41:55;45.95;;;4.78;;
18259;SDS011;9256;52.236;5.712;2023-11-19T04:44:23;61.03;;;5.05;;
18259;SDS011;9256;52.236;5.712;2023-11-19T04:46:50;54.13;;;4.80;;
18259;SDS011;9256;52.236;5.712;2023-11-19T04:49:17;48.95;;;4.55;;
18259;SDS011;9256;52.236;5.712;2023-11-19T04:51:44;51.58;;;4.55;;
18259;SDS011;9256;52.236;5.712;2023-11-19T04:54:12;52.13;;;4.55;;
18259;SDS011;9256;52.236;5.712;2023-11-19T04:56:39;52.93;;;5.40;;
18259;SDS011;9256;52.236;5.712;2023-11-19T04:59:06;53.05;;;4.93;;
18259;SDS011;9256;52.236;5.712;2023-11-19T05:01:36;52.47;;;4.30;;
18259;SDS011;9256;52.236;5.712;2023-11-19T05:04:03;43.20;;;4.55;;
18259;SDS011;9256;52.236;5.712;2023-11-19T05:06:30;46.45;;;4.38;;
18259;SDS011;9256;52.236;5.712;2023-11-19T05:09:00;50.55;;;4.78;;
18259;SDS011;9256;52.236;5.712;2023-11-19T05:11:29;52.55;;;4.20;;
18259;SDS011;9256;52.236;5.712;2023-11-19T05:13:56;51.33;;;4.70;;
18259;SDS011;9256;52.236;5.712;2023-11-19T05:16:23;38.97;;;4.32;;
18259;SDS011;9256;52.236;5.712;2023-11-19T05:18:51;45.67;;;4.65;;
18259;SDS011;9256;52.236;5.712;2023-11-19T05:21:18;55.20;;;5.25;;
18259;SDS011;9256;52.236;5.712;2023-11-19T05:23:45;47.67;;;4.65;;
18259;SDS011;9256;52.236;5.712;2023-11-19T05:26:17;50.53;;;4.93;;
18259;SDS011;9256;52.236;5.712;2023-11-19T05:28:44;41.20;;;4.80;;
18259;SDS011;9256;52.236;5.712;2023-11-19T05:31:11;53.70;;;4.88;;
18259;SDS011;9256;52.236;5.712;2023-11-19T05:33:38;43.80;;;4.32;;
18259;SDS011;9256;52.236;5.712;2023-11-19T05:36:07;49.58;;;4.32;;
18259;SDS011;9256;52.236;5.712;2023-11-19T05:38:34;50.80;;;4.15;;
18259;SDS011;9256;52.236;5.712;2023-11-19T05:41:01;47.95;;;5.32;;
18259;SDS011;9256;52.236;5.712;2023-11-19T05:43:29;45.10;;;4.53;;
18259;SDS011;9256;52.236;5.712;2023-11-19T05:45:56;43.67;;;4.05;;
18259;SDS011;9256;52.236;5.712;2023-11-19T05:48:24;50.88;;;5.20;;
18259;SDS011;9256;52.236;5.712;2023-11-19T05:50:52;48.88;;;4.75;;
18259;SDS011;9256;52.236;5.712;2023-11-19T05:53:21;56.55;;;4.95;;
18259;SDS011;9256;52.236;5.712;2023-11-19T05:55:48;54.83;;;4.95;;
18259;SDS011;9256;52.236;5.712;2023-11-19T05:58:19;51.63;;;5.00;;
18259;SDS011;9256;52.236;5.712;2023-11-19T06:00:49;57.22;;;8.05;;
18259;SDS011;9256;52.236;5.712;2023-11-19T06:03:16;50.25;;;7.68;;
18259;SDS011;9256;52.236;5.712;2023-11-19T06:05:44;56.30;;;9.07;;
18259;SDS011;9256;52.236;5.712;2023-11-19T06:08:10;44.35;;;5.43;;
18259;SDS011;9256;52.236;5.712;2023-11-19T06:10:41;51.85;;;7.22;;
18259;SDS011;9256;52.236;5.712;2023-11-19T06:13:08;42.13;;;5.45;;
18259;SDS011;9256;52.236;5.712;2023-11-19T06:15:36;49.45;;;5.40;;
18259;SDS011;9256;52.236;5.712;2023-11-19T06:18:03;42.30;;;5.35;;
18259;SDS011;9256;52.236;5.712;2023-11-19T06:20:30;49.65;;;4.72;;
18259;SDS011;9256;52.236;5.712;2023-11-19T06:22:58;39.97;;;4.82;;
18259;SDS011;9256;52.236;5.712;2023-11-19T06:25:25;38.97;;;4.38;;
18259;SDS011;9256;52.236;5.712;2023-11-19T06:27:55;41.72;;;4.53;;
18259;SDS011;9256;52.236;5.712;2023-11-19T06:30:24;45.25;;;5.05;;
18259;SDS011;9256;52.236;5.712;2023-11-19T06:32:53;50.33;;;4.40;;
18259;SDS011;9256;52.236;5.712;2023-11-19T06:35:20;41.85;;;4.57;;
18259;SDS011;9256;52.236;5.712;2023-11-19T06:37:47;50.10;;;4.85;;
18259;SDS011;9256;52.236;5.712;2023-11-19T06:40:20;39.65;;;4.05;;
18259;SDS011;9256;52.236;5.712;2023-11-19T06:42:47;47.03;;;4.53;;
18259;SDS011;9256;52.236;5.712;2023-11-19T06:45:15;46.85;;;4.65;;
18259;SDS011;9256;52.236;5.712;2023-11-19T06:47:42;43.35;;;4.53;;
18259;SDS011;9256;52.236;5.712;2023-11-19T06:50:09;45.90;;;4.57;;
18259;SDS011;9256;52.236;5.712;2023-11-19T06:52:37;51.60;;;4.82;;
18259;SDS011;9256;52.236;5.712;2023-11-19T06:55:05;46.10;;;4.30;;
18259;SDS011;9256;52.236;5.712;2023-11-19T06:57:32;44.55;;;4.22;;
18259;SDS011;9256;52.236;5.712;2023-11-19T06:59:59;48.92;;;4.63;;
18259;SDS011;9256;52.236;5.712;2023-11-19T07:02:28;44.35;;;4.65;;
18259;SDS011;9256;52.236;5.712;2023-11-19T07:04:56;49.28;;;4.57;;
18259;SDS011;9256;52.236;5.712;2023-11-19T07:07:23;52.42;;;4.78;;
18259;SDS011;9256;52.236;5.712;2023-11-19T07:09:51;57.58;;;5.13;;
18259;SDS011;9256;52.236;5.712;2023-11-19T07:12:18;41.95;;;4.57;;
18259;SDS011;9256;52.236;5.712;2023-11-19T07:14:45;43.22;;;4.45;;
18259;SDS011;9256;52.236;5.712;2023-11-19T07:17:12;44.60;;;4.57;;
18259;SDS011;9256;52.236;5.712;2023-11-19T07:19:40;50.13;;;4.57;;
18259;SDS011;9256;52.236;5.712;2023-11-19T07:22:07;47.38;;;4.38;;
18259;SDS011;9256;52.236;5.712;2023-11-19T07:24:38;50.67;;;4.65;;
18259;SDS011;9256;52.236;5.712;2023-11-19T07:27:05;49.65;;;4.57;;
18259;SDS011;9256;52.236;5.712;2023-11-19T07:29:33;53.53;;;4.18;;
18259;SDS011;9256;52.236;5.712;2023-11-19T07:32:04;49.80;;;4.25;;
18259;SDS011;9256;52.236;5.712;2023-11-19T07:34:33;41.70;;;4.32;;
18259;SDS011;9256;52.236;5.712;2023-11-19T07:37:04;44.00;;;4.60;;
18259;SDS011;9256;52.236;5.712;2023-11-19T07:39:35;54.30;;;4.72;;
18259;SDS011;9256;52.236;5.712;2023-11-19T07:42:05;50.42;;;4.32;;
18259;SDS011;9256;52.236;5.712;2023-11-19T07:44:37;42.90;;;4.25;;
18259;SDS011;9256;52.236;5.712;2023-11-19T07:47:09;44.22;;;4.07;;
18259;SDS011;9256;52.236;5.712;2023-11-19T07:49:36;45.30;;;4.00;;
18259;SDS011;9256;52.236;5.712;2023-11-19T07:52:05;51.15;;;4.70;;
18259;SDS011;9256;52.236;5.712;2023-11-19T07:54:34;46.35;;;4.72;;
18259;SDS011;9256;52.236;5.712;2023-11-19T07:57:05;48.08;;;4.45;;
18259;SDS011;9256;52.236;5.712;2023-11-19T07:59:32;47.10;;;4.10;;
18259;SDS011;9256;52.236;5.712;2023-11-19T08:01:59;51.10;;;4.65;;
18259;SDS011;9256;52.236;5.712;2023-11-19T08:04:31;43.05;;;4.07;;
18259;SDS011;9256;52.236;5.712;2023-11-19T08:07:08;51.50;;;4.38;;
18259;SDS011;9256;52.236;5.712;2023-11-19T08:09:35;45.13;;;4.43;;
18259;SDS011;9256;52.236;5.712;2023-11-19T08:12:04;52.42;;;5.72;;
18259;SDS011;9256;52.236;5.712;2023-11-19T08:14:41;44.78;;;4.95;;
18259;SDS011;9256;52.236;5.712;2023-11-19T08:17:09;41.80;;;4.78;;
18259;SDS011;9256;52.236;5.712;2023-11-19T08:19:36;42.53;;;4.65;;
18259;SDS011;9256;52.236;5.712;2023-11-19T08:22:06;38.58;;;3.92;;
18259;SDS011;9256;52.236;5.712;2023-11-19T08:24:35;47.15;;;3.83;;
18259;SDS011;9256;52.236;5.712;2023-11-19T08:27:11;47.50;;;5.40;;
18259;SDS011;9256;52.236;5.712;2023-11-19T08:29:38;47.65;;;4.45;;
18259;SDS011;9256;52.236;5.712;2023-11-19T08:32:05;41.85;;;4.28;;
18259;SDS011;9256;52.236;5.712;2023-11-19T08:34:33;47.70;;;4.53;;
18259;SDS011;9256;52.236;5.712;2023-11-19T08:37:00;42.00;;;4.72;;
18259;SDS011;9256;52.236;5.712;2023-11-19T08:42:21;57.85;;;4.70;;
18259;SDS011;9256;52.236;5.712;2023-11-19T08:44:59;48.88;;;4.65;;
18259;SDS011;9256;52.236;5.712;2023-11-19T08:47:30;48.38;;;4.55;;
18259;SDS011;9256;52.236;5.712;2023-11-19T08:49:57;39.20;;;4.60;;
18259;SDS011;9256;52.236;5.712;2023-11-19T08:52:24;38.65;;;4.05;;
18259;SDS011;9256;52.236;5.712;2023-11-19T08:54:57;54.78;;;4.78;;
18259;SDS011;9256;52.236;5.712;2023-11-19T08:57:28;55.15;;;5.22;;
18259;SDS011;9256;52.236;5.712;2023-11-19T08:59:58;46.00;;;4.40;;
18259;SDS011;9256;52.236;5.712;2023-11-19T09:02:27;53.30;;;5.25;;
18259;SDS011;9256;52.236;5.712;2023-11-19T09:04:59;48.00;;;4.70;;
18259;SDS011;9256;52.236;5.712;2023-11-19T09:07:42;47.47;;;4.70;;
18259;SDS011;9256;52.236;5.712;2023-11-19T09:10:12;43.63;;;4.15;;
18259;SDS011;9256;52.236;5.712;2023-11-19T09:12:39;36.47;;;3.97;;
18259;SDS011;9256;52.236;5.712;2023-11-19T09:15:11;44.95;;;4.63;;
18259;SDS011;9256;52.236;5.712;2023-11-19T09:17:51;39.92;;;4.43;;
18259;SDS011;9256;52.236;5.712;2023-11-19T09:20:23;40.38;;;4.55;;
18259;SDS011;9256;52.236;5.712;2023-11-19T09:22:50;49.38;;;4.82;;
18259;SDS011;9256;52.236;5.712;2023-11-19T09:25:22;43.90;;;4.38;;
18259;SDS011;9256;52.236;5.712;2023-11-19T09:27:57;37.13;;;4.22;;
18259;SDS011;9256;52.236;5.712;2023-11-19T09:30:31;43.22;;;4.05;;
18259;SDS011;9256;52.236;5.712;2023-11-19T09:33:02;42.80;;;4.38;;
18259;SDS011;9256;52.236;5.712;2023-11-19T09:35:30;38.20;;;4.00;;
18259;SDS011;9256;52.236;5.712;2023-11-19T09:38:03;41.15;;;3.95;;
18259;SDS011;9256;52.236;5.712;2023-11-19T09:40:40;33.55;;;3.70;;
18259;SDS011;9256;52.236;5.712;2023-11-19T09:43:20;35.92;;;4.60;;
18259;SDS011;9256;52.236;5.712;2023-11-19T09:45:53;37.17;;;3.65;;
18259;SDS011;9256;52.236;5.712;2023-11-19T09:48:32;47.67;;;5.05;;
18259;SDS011;9256;52.236;5.712;2023-11-19T09:51:01;49.15;;;5.18;;
18259;SDS011;9256;52.236;5.712;2023-11-19T09:53:39;43.35;;;5.13;;
18259;SDS011;9256;52.236;5.712;2023-11-19T09:56:09;45.47;;;3.92;;
18259;SDS011;9256;52.236;5.712;2023-11-19T09:58:50;45.55;;;6.35;;
18259;SDS011;9256;52.236;5.712;2023-11-19T10:01:45;42.13;;;5.78;;
18259;SDS011;9256;52.236;5.712;2023-11-19T10:04:34;49.42;;;4.50;;
18259;SDS011;9256;52.236;5.712;2023-11-19T10:07:10;41.20;;;4.03;;
18259;SDS011;9256;52.236;5.712;2023-11-19T10:09:52;39.70;;;4.80;;
18259;SDS011;9256;52.236;5.712;2023-11-19T10:12:23;37.63;;;3.83;;
18259;SDS011;9256;52.236;5.712;2023-11-19T10:14:53;49.55;;;4.75;;
18259;SDS011;9256;52.236;5.712;2023-11-19T10:17:27;35.92;;;5.47;;
18259;SDS011;9256;52.236;5.712;2023-11-19T10:19:56;48.03;;;5.80;;
18259;SDS011;9256;52.236;5.712;2023-11-19T10:22:26;39.83;;;5.20;;
18259;SDS011;9256;52.236;5.712;2023-11-19T10:24:56;44.20;;;4.13;;
18259;SDS011;9256;52.236;5.712;2023-11-19T10:27:31;38.65;;;4.45;;
18259;SDS011;9256;52.236;5.712;2023-11-19T10:30:10;35.30;;;4.07;;
18259;SDS011;9256;52.236;5.712;2023-11-19T10:32:38;45.63;;;6.75;;
18259;SDS011;9256;52.236;5.712;2023-11-19T10:35:19;40.00;;;4.78;;
18259;SDS011;9256;52.236;5.712;2023-11-19T10:37:47;45.38;;;4.40;;
18259;SDS011;9256;52.236;5.712;2023-11-19T10:40:26;37.08;;;4.10;;
18259;SDS011;9256;52.236;5.712;2023-11-19T10:43:08;40.20;;;4.35;;
18259;SDS011;9256;52.236;5.712;2023-11-19T10:45:35;37.92;;;5.05;;
18259;SDS011;9256;52.236;5.712;2023-11-19T10:48:05;43.10;;;4.55;;
18259;SDS011;9256;52.236;5.712;2023-11-19T10:50:33;33.58;;;3.70;;
18259;SDS011;9256;52.236;5.712;2023-11-19T10:53:01;33.10;;;4.75;;
18259;SDS011;9256;52.236;5.712;2023-11-19T10:55:29;37.95;;;3.88;;
18259;SDS011;9256;52.236;5.712;2023-11-19T10:58:00;34.53;;;3.45;;
18259;SDS011;9256;52.236;5.712;2023-11-19T11:00:36;34.10;;;4.70;;
18259;SDS011;9256;52.236;5.712;2023-11-19T11:03:09;34.78;;;4.03;;
18259;SDS011;9256;52.236;5.712;2023-11-19T11:05:42;37.35;;;6.00;;
18259;SDS011;9256;52.236;5.712;2023-11-19T11:08:09;35.25;;;4.00;;
18259;SDS011;9256;52.236;5.712;2023-11-19T11:10:42;39.08;;;4.90;;
18259;SDS011;9256;52.236;5.712;2023-11-19T11:13:21;37.03;;;3.97;;
18259;SDS011;9256;52.236;5.712;2023-11-19T11:15:55;36.60;;;4.03;;
18259;SDS011;9256;52.236;5.712;2023-11-19T11:18:27;32.90;;;3.75;;
18259;SDS011;9256;52.236;5.712;2023-11-19T11:20:55;41.53;;;3.75;;
18259;SDS011;9256;52.236;5.712;2023-11-19T11:23:46;29.58;;;3.85;;
18259;SDS011;9256;52.236;5.712;2023-11-19T11:29:35;41.50;;;5.18;;
18259;SDS011;9256;52.236;5.712;2023-11-19T11:32:13;42.15;;;4.05;;
18259;SDS011;9256;52.236;5.712;2023-11-19T11:34:55;46.28;;;5.13;;
18259;SDS011;9256;52.236;5.712;2023-11-19T11:37:30;34.42;;;4.30;;
18259;SDS011;9256;52.236;5.712;2023-11-19T11:40:01;39.50;;;4.20;;
18259;SDS011;9256;52.236;5.712;2023-11-19T11:42:39;32.55;;;3.55;;
18259;SDS011;9256;52.236;5.712;2023-11-19T11:45:08;34.58;;;3.90;;
18259;SDS011;9256;52.236;5.712;2023-11-19T11:50:54;24.38;;;3.13;;
18259;SDS011;9256;52.236;5.712;2023-11-19T11:53:23;32.08;;;3.97;;
18259;SDS011;9256;52.236;5.712;2023-11-19T11:55:52;28.63;;;3.40;;
18259;SDS011;9256;52.236;5.712;2023-11-19T11:58:34;34.65;;;3.85;;
18259;SDS011;9256;52.236;5.712;2023-11-19T12:01:04;31.77;;;3.47;;
18259;SDS011;9256;52.236;5.712;2023-11-19T12:03:36;30.40;;;3.55;;
18259;SDS011;9256;52.236;5.712;2023-11-19T12:06:04;32.28;;;3.67;;
18259;SDS011;9256;52.236;5.712;2023-11-19T12:08:33;31.27;;;3.50;;
18259;SDS011;9256;52.236;5.712;2023-11-19T12:11:06;40.50;;;3.72;;
18259;SDS011;9256;52.236;5.712;2023-11-19T12:13:54;34.08;;;3.70;;
18259;SDS011;9256;52.236;5.712;2023-11-19T12:16:26;35.75;;;3.45;;
18259;SDS011;9256;52.236;5.712;2023-11-19T12:19:04;37.13;;;3.85;;
18259;SDS011;9256;52.236;5.712;2023-11-19T12:21:35;41.25;;;4.07;;
18259;SDS011;9256;52.236;5.712;2023-11-19T12:24:09;35.85;;;4.10;;
18259;SDS011;9256;52.236;5.712;2023-11-19T12:26:49;32.10;;;3.42;;
18259;SDS011;9256;52.236;5.712;2023-11-19T12:29:19;40.50;;;3.88;;
18259;SDS011;9256;52.236;5.712;2023-11-19T12:31:55;31.02;;;3.28;;
18259;SDS011;9256;52.236;5.712;2023-11-19T12:34:32;32.65;;;4.05;;
18259;SDS011;9256;52.236;5.712;2023-11-19T12:37:02;28.40;;;3.55;;
18259;SDS011;9256;52.236;5.712;2023-11-19T12:39:32;35.80;;;4.70;;
18259;SDS011;9256;52.236;5.712;2023-11-19T12:42:01;37.85;;;4.05;;
18259;SDS011;9256;52.236;5.712;2023-11-19T12:44:55;41.45;;;4.07;;
18259;SDS011;9256;52.236;5.712;2023-11-19T12:47:25;38.05;;;3.55;;
18259;SDS011;9256;52.236;5.712;2023-11-19T12:50:02;28.55;;;2.88;;
18259;SDS011;9256;52.236;5.712;2023-11-19T12:52:55;24.27;;;3.60;;
18259;SDS011;9256;52.236;5.712;2023-11-19T12:55:30;26.70;;;3.20;;
18259;SDS011;9256;52.236;5.712;2023-11-19T12:58:09;22.98;;;3.15;;
18259;SDS011;9256;52.236;5.712;2023-11-19T13:00:51;25.48;;;3.03;;
18259;SDS011;9256;52.236;5.712;2023-11-19T13:03:36;27.73;;;4.07;;
18259;SDS011;9256;52.236;5.712;2023-11-19T13:06:15;39.33;;;3.97;;
18259;SDS011;9256;52.236;5.712;2023-11-19T13:08:47;32.13;;;4.20;;
18259;SDS011;9256;52.236;5.712;2023-11-19T13:11:31;26.60;;;3.00;;
18259;SDS011;9256;52.236;5.712;2023-11-19T13:14:10;28.33;;;3.35;;
18259;SDS011;9256;52.236;5.712;2023-11-19T13:16:48;27.45;;;3.00;;
18259;SDS011;9256;52.236;5.712;2023-11-19T13:19:23;27.63;;;3.38;;
18259;SDS011;9256;52.236;5.712;2023-11-19T13:22:03;29.05;;;3.20;;
18259;SDS011;9256;52.236;5.712;2023-11-19T13:24:41;32.42;;;3.20;;
18259;SDS011;9256;52.236;5.712;2023-11-19T13:27:14;26.13;;;2.78;;
18259;SDS011;9256;52.236;5.712;2023-11-19T13:29:48;32.15;;;3.88;;
18259;SDS011;9256;52.236;5.712;2023-11-19T13:32:26;21.40;;;2.85;;
18259;SDS011;9256;52.236;5.712;2023-11-19T13:35:08;26.42;;;2.88;;
18259;SDS011;9256;52.236;5.712;2023-11-19T13:37:57;27.85;;;2.53;;
18259;SDS011;9256;52.236;5.712;2023-11-19T13:40:35;30.75;;;3.85;;
18259;SDS011;9256;52.236;5.712;2023-11-19T13:43:06;30.77;;;2.83;;
18259;SDS011;9256;52.236;5.712;2023-11-19T13:45:40;26.75;;;3.50;;
18259;SDS011;9256;52.236;5.712;2023-11-19T13:48:13;27.85;;;3.10;;
18259;SDS011;9256;52.236;5.712;2023-11-19T13:50:48;27.67;;;3.33;;
18259;SDS011;9256;52.236;5.712;2023-11-19T13:53:34;34.88;;;3.60;;
18259;SDS011;9256;52.236;5.712;2023-11-19T13:56:08;30.08;;;3.47;;
18259;SDS011;9256;52.236;5.712;2023-11-19T13:58:40;31.45;;;3.53;;
18259;SDS011;9256;52.236;5.712;2023-11-19T14:01:13;34.90;;;4.70;;
18259;SDS011;9256;52.236;5.712;2023-11-19T14:03:46;34.20;;;3.95;;
18259;SDS011;9256;52.236;5.712;2023-11-19T14:06:16;32.38;;;4.72;;
18259;SDS011;9256;52.236;5.712;2023-11-19T14:08:54;30.42;;;3.72;;
18259;SDS011;9256;52.236;5.712;2023-11-19T14:11:35;27.70;;;3.17;;
18259;SDS011;9256;52.236;5.712;2023-11-19T14:14:14;33.60;;;3.50;;
18259;SDS011;9256;52.236;5.712;2023-11-19T14:16:41;30.75;;;3.50;;
18259;SDS011;9256;52.236;5.712;2023-11-19T14:19:45;28.67;;;3.08;;
18259;SDS011;9256;52.236;5.712;2023-11-19T14:22:16;29.40;;;3.20;;
18259;SDS011;9256;52.236;5.712;2023-11-19T14:24:48;26.75;;;3.90;;
18259;SDS011;9256;52.236;5.712;2023-11-19T14:27:22;40.88;;;4.93;;
18259;SDS011;9256;52.236;5.712;2023-11-19T14:30:09;33.72;;;4.50;;
18259;SDS011;9256;52.236;5.712;2023-11-19T14:33:07;33.10;;;3.00;;
18259;SDS011;9256;52.236;5.712;2023-11-19T14:35:44;32.08;;;3.72;;
18259;SDS011;9256;52.236;5.712;2023-11-19T14:38:53;39.97;;;4.38;;
18259;SDS011;9256;52.236;5.712;2023-11-19T14:44:20;30.08;;;3.85;;
18259;SDS011;9256;52.236;5.712;2023-11-19T14:47:04;29.88;;;3.50;;
18259;SDS011;9256;52.236;5.712;2023-11-19T14:49:51;42.92;;;4.70;;
18259;SDS011;9256;52.236;5.712;2023-11-19T14:52:25;29.85;;;3.42;;
18259;SDS011;9256;52.236;5.712;2023-11-19T14:55:06;36.50;;;4.90;;
18259;SDS011;9256;52.236;5.712;2023-11-19T14:57:42;33.78;;;5.80;;
18259;SDS011;9256;52.236;5.712;2023-11-19T15:00:14;40.47;;;6.00;;
18259;SDS011;9256;52.236;5.712;2023-11-19T15:03:10;48.35;;;6.70;;
18259;SDS011;9256;52.236;5.712;2023-11-19T15:05:52;37.28;;;5.05;;
18259;SDS011;9256;52.236;5.712;2023-11-19T15:08:19;35.47;;;4.18;;
18259;SDS011;9256;52.236;5.712;2023-11-19T15:10:53;49.72;;;6.70;;
18259;SDS011;9256;52.236;5.712;2023-11-19T15:16:29;45.38;;;6.10;;
18259;SDS011;9256;52.236;5.712;2023-11-19T15:19:10;37.05;;;5.32;;
18259;SDS011;9256;52.236;5.712;2023-11-19T15:21:40;46.17;;;7.38;;
18259;SDS011;9256;52.236;5.712;2023-11-19T15:24:16;37.20;;;6.93;;
18259;SDS011;9256;52.236;5.712;2023-11-19T15:26:49;46.67;;;6.63;;